createdAt,value
2023-01-19T00:01:06.732Z,100.00
2023-01-19T00:03:35.639Z,100.00
2023-01-19T00:06:07.465Z,100.00
2023-01-19T00:08:35.956Z,100.00
2023-01-19T00:11:03.873Z,100.00
2023-01-19T00:13:31.934Z,100.00
2023-01-19T00:15:59.741Z,100.00
2023-01-19T00:18:27.311Z,100.00
2023-01-19T00:20:54.853Z,100.00
2023-01-19T00:23:22.694Z,100.00
2023-01-19T00:25:51.274Z,100.00
2023-01-19T00:28:19.353Z,100.00
2023-01-19T00:30:47.289Z,100.00
2023-01-19T00:33:15.263Z,100.00
2023-01-19T00:35:43.066Z,100.00
2023-01-19T00:38:11.702Z,100.00
2023-01-19T00:40:39.336Z,100.00
2023-01-19T00:43:06.768Z,100.00
2023-01-19T00:45:35.264Z,100.00
2023-01-19T00:48:02.838Z,100.00
2023-01-19T00:50:32.245Z,100.00
2023-01-19T00:53:01.687Z,100.00
2023-01-19T00:55:31.011Z,100.00
2023-01-19T00:57:58.522Z,100.00
2023-01-19T01:00:26.545Z,100.00
2023-01-19T01:02:54.225Z,100.00
2023-01-19T01:05:22.184Z,100.00
2023-01-19T01:07:50.772Z,100.00
2023-01-19T01:10:21.595Z,100.00
2023-01-19T01:12:54.857Z,100.00
2023-01-19T01:15:27.197Z,100.00
2023-01-19T01:17:55.875Z,100.00
2023-01-19T01:20:27.958Z,100.00
2023-01-19T01:22:57.086Z,100.00
2023-01-19T01:25:26.211Z,100.00
2023-01-19T01:27:54.868Z,100.00
2023-01-19T01:30:23.295Z,100.00
2023-01-19T01:32:50.789Z,100.00
2023-01-19T01:35:18.365Z,100.00
2023-01-19T01:37:46.146Z,100.00
2023-01-19T01:40:15.904Z,100.00
2023-01-19T01:42:43.732Z,100.00
2023-01-19T01:45:24.649Z,100.00
2023-01-19T01:47:54.905Z,100.00
2023-01-19T01:50:26.829Z,100.00
2023-01-19T01:53:06.583Z,100.00
2023-01-19T01:55:43.417Z,100.00
2023-01-19T01:58:12.235Z,100.00
2023-01-19T02:00:59.001Z,100.00
2023-01-19T02:03:27.615Z,100.00
2023-01-19T02:05:59.658Z,100.00
2023-01-19T02:08:52.997Z,100.00
2023-01-19T02:11:39.370Z,100.00
2023-01-19T02:14:07.204Z,100.00
2023-01-19T02:16:36.366Z,100.00
2023-01-19T02:19:07.133Z,100.00
2023-01-19T02:21:46.752Z,100.00
2023-01-19T02:24:14.853Z,100.00
2023-01-19T02:26:45.810Z,100.00
2023-01-19T02:29:22.754Z,100.00
2023-01-19T02:31:53.972Z,100.00
2023-01-19T02:34:22.752Z,100.00
2023-01-19T02:36:54.611Z,100.00
2023-01-19T02:39:36.467Z,100.00
2023-01-19T02:42:13.234Z,100.00
2023-01-19T02:44:43.875Z,100.00
2023-01-19T02:47:12.334Z,100.00
2023-01-19T02:49:39.935Z,100.00
2023-01-19T02:52:15.505Z,100.00
2023-01-19T02:54:46.197Z,100.00
2023-01-19T02:57:13.969Z,100.00
2023-01-19T03:00:04.749Z,100.00
2023-01-19T03:02:42.276Z,100.00
2023-01-19T03:05:25.185Z,100.00
2023-01-19T03:08:06.127Z,100.00
2023-01-19T03:10:53.583Z,100.00
2023-01-19T03:13:33.246Z,100.00
2023-01-19T03:16:12.793Z,100.00
2023-01-19T03:18:45.293Z,100.00
2023-01-19T03:21:15.081Z,100.00
2023-01-19T03:23:46.294Z,100.00
2023-01-19T03:26:18.991Z,100.00
2023-01-19T03:28:48.944Z,100.00
2023-01-19T03:31:24.288Z,100.00
2023-01-19T03:33:56.168Z,100.00
2023-01-19T03:36:35.128Z,100.00
2023-01-19T03:39:06.034Z,100.00
2023-01-19T03:41:34.624Z,100.00
2023-01-19T03:44:02.845Z,100.00
2023-01-19T03:46:31.293Z,100.00
2023-01-19T03:48:59.291Z,100.00
2023-01-19T03:51:27.848Z,100.00
2023-01-19T03:53:55.478Z,100.00
2023-01-19T03:56:25.464Z,100.00
2023-01-19T03:58:53.512Z,100.00
2023-01-19T04:01:22.999Z,100.00
2023-01-19T04:03:51.984Z,100.00
2023-01-19T04:06:20.721Z,100.00
2023-01-19T04:08:52.026Z,100.00
2023-01-19T04:11:19.841Z,100.00
2023-01-19T04:13:47.281Z,100.00
2023-01-19T04:16:19.993Z,100.00
2023-01-19T04:18:48.584Z,100.00
2023-01-19T04:21:16.889Z,100.00
2023-01-19T04:23:47.128Z,100.00
2023-01-19T04:26:14.961Z,100.00
2023-01-19T04:28:42.842Z,100.00
2023-01-19T04:31:10.344Z,100.00
2023-01-19T04:33:38.005Z,100.00
2023-01-19T04:36:05.871Z,100.00
2023-01-19T04:38:33.445Z,100.00
2023-01-19T04:41:01.158Z,100.00
2023-01-19T04:43:28.997Z,100.00
2023-01-19T04:45:56.880Z,100.00
2023-01-19T04:48:24.677Z,100.00
2023-01-19T04:50:52.634Z,100.00
2023-01-19T04:53:20.073Z,100.00
2023-01-19T04:55:48.137Z,100.00
2023-01-19T04:58:15.803Z,100.00
2023-01-19T05:00:43.655Z,100.00
2023-01-19T05:03:11.700Z,100.00
2023-01-19T05:05:39.170Z,100.00
2023-01-19T05:08:06.701Z,100.00
2023-01-19T05:10:34.410Z,100.00
2023-01-19T05:13:02.303Z,100.00
2023-01-19T05:15:29.948Z,100.00
2023-01-19T05:17:58.145Z,100.00
2023-01-19T05:20:25.613Z,100.00
2023-01-19T05:22:53.594Z,100.00
2023-01-19T05:25:21.460Z,100.00
2023-01-19T05:27:49.018Z,100.00
2023-01-19T05:30:16.897Z,100.00
2023-01-19T05:32:44.887Z,100.00
2023-01-19T05:35:15.411Z,100.00
2023-01-19T05:37:44.555Z,100.00
2023-01-19T05:40:12.370Z,100.00
2023-01-19T05:42:39.853Z,100.00
2023-01-19T05:45:08.281Z,100.00
2023-01-19T05:47:35.767Z,100.00
2023-01-19T05:50:04.050Z,100.00
2023-01-19T05:52:31.741Z,100.00
2023-01-19T05:54:59.145Z,100.00
2023-01-19T05:57:26.647Z,100.00
2023-01-19T05:59:54.479Z,100.00
2023-01-19T06:02:28.576Z,100.00
2023-01-19T06:04:57.118Z,100.00
2023-01-19T06:07:25.660Z,100.00
2023-01-19T06:09:54.185Z,100.00
2023-01-19T06:12:22.141Z,100.00
2023-01-19T06:14:49.570Z,100.00
2023-01-19T06:17:17.285Z,100.00
2023-01-19T06:19:45.010Z,100.00
2023-01-19T06:22:12.519Z,100.00
2023-01-19T06:24:39.932Z,100.00
2023-01-19T06:27:07.866Z,100.00
2023-01-19T06:29:35.404Z,100.00
2023-01-19T06:32:02.981Z,100.00
2023-01-19T06:34:30.761Z,100.00
2023-01-19T06:36:58.955Z,100.00
2023-01-19T06:39:27.588Z,100.00
2023-01-19T06:41:55.471Z,100.00
2023-01-19T06:44:22.911Z,100.00
2023-01-19T06:46:50.377Z,100.00
2023-01-19T06:49:18.405Z,100.00
2023-01-19T06:51:45.953Z,100.00
2023-01-19T06:54:13.536Z,100.00
2023-01-19T06:56:41.254Z,100.00
2023-01-19T06:59:09.862Z,100.00
2023-01-19T07:01:37.305Z,100.00
2023-01-19T07:04:05.436Z,100.00
2023-01-19T07:06:32.962Z,100.00
2023-01-19T07:09:00.387Z,100.00
2023-01-19T07:11:32.338Z,100.00
2023-01-19T07:14:00.938Z,100.00
2023-01-19T07:16:28.733Z,100.00
2023-01-19T07:18:56.480Z,100.00
2023-01-19T07:21:23.965Z,100.00
2023-01-19T07:23:52.628Z,100.00
2023-01-19T07:26:21.447Z,100.00
2023-01-19T07:28:49.673Z,100.00
2023-01-19T07:31:18.949Z,100.00
2023-01-19T07:33:47.212Z,100.00
2023-01-19T07:36:15.166Z,100.00
2023-01-19T07:38:43.293Z,100.00
2023-01-19T07:41:11.181Z,100.00
2023-01-19T07:43:38.793Z,100.00
2023-01-19T07:46:08.378Z,100.00
2023-01-19T07:48:37.276Z,100.00
2023-01-19T07:51:10.389Z,100.00
2023-01-19T07:53:40.070Z,100.00
2023-01-19T07:56:07.942Z,100.00
2023-01-19T07:58:36.310Z,100.00
2023-01-19T08:01:09.716Z,100.00
2023-01-19T08:03:38.240Z,100.00
2023-01-19T08:06:07.210Z,100.00
2023-01-19T08:08:35.487Z,100.00
2023-01-19T08:11:03.264Z,100.00
2023-01-19T08:13:30.663Z,100.00
2023-01-19T08:15:58.312Z,100.00
2023-01-19T08:18:26.165Z,100.00
2023-01-19T08:20:54.049Z,100.00
2023-01-19T08:23:21.721Z,100.00
2023-01-19T08:25:49.463Z,100.00
2023-01-19T08:28:17.739Z,100.00
2023-01-19T08:30:45.504Z,100.00
2023-01-19T08:33:13.932Z,100.00
2023-01-19T08:35:43.486Z,100.00
2023-01-19T08:38:11.204Z,100.00
2023-01-19T08:40:40.686Z,100.00
2023-01-19T08:43:14.153Z,100.00
2023-01-19T08:45:49.153Z,100.00
2023-01-19T08:48:18.677Z,100.00
2023-01-19T08:50:50.202Z,100.00
2023-01-19T08:53:19.208Z,100.00
2023-01-19T08:55:47.285Z,100.00
2023-01-19T08:58:14.747Z,100.00
2023-01-19T09:00:42.507Z,100.00
2023-01-19T09:03:12.809Z,100.00
2023-01-19T09:05:40.938Z,100.00
2023-01-19T09:08:11.314Z,100.00
2023-01-19T09:10:44.541Z,100.00
2023-01-19T09:13:13.025Z,100.00
2023-01-19T09:15:42.177Z,100.00
2023-01-19T09:18:13.651Z,100.00
2023-01-19T09:20:43.012Z,100.00
2023-01-19T09:23:17.186Z,100.00
2023-01-19T09:25:46.293Z,100.00
2023-01-19T09:28:16.397Z,100.00
2023-01-19T09:30:44.881Z,100.00
2023-01-19T09:33:15.279Z,100.00
2023-01-19T09:35:44.971Z,100.00
2023-01-19T09:38:15.324Z,100.00
2023-01-19T09:40:51.845Z,100.00
2023-01-19T09:43:25.751Z,100.00
2023-01-19T09:46:00.769Z,100.00
2023-01-19T09:48:32.349Z,100.00
2023-01-19T09:51:04.386Z,100.00
2023-01-19T09:53:47.126Z,100.00
2023-01-19T09:56:17.583Z,100.00
2023-01-19T09:58:46.722Z,100.00
2023-01-19T10:01:37.683Z,100.00
2023-01-19T10:04:50.582Z,100.00
2023-01-19T10:07:44.216Z,100.00
2023-01-19T10:10:14.901Z,100.00
2023-01-19T10:13:04.046Z,100.00
2023-01-19T10:15:38.019Z,100.00
2023-01-19T10:18:25.346Z,100.00
2023-01-19T10:21:04.588Z,100.00
2023-01-19T10:23:44.241Z,100.00
2023-01-19T10:26:22.100Z,100.00
2023-01-19T10:28:54.240Z,100.00
2023-01-19T10:31:24.270Z,100.00
2023-01-19T10:33:52.985Z,100.00
2023-01-19T10:36:25.926Z,100.00
2023-01-19T10:38:53.682Z,100.00
2023-01-19T10:41:31.616Z,100.00
2023-01-19T10:44:02.426Z,100.00
2023-01-19T10:46:48.240Z,100.00
2023-01-19T10:49:27.394Z,100.00
2023-01-19T10:52:04.678Z,100.00
2023-01-19T10:54:34.843Z,100.00
2023-01-19T10:57:05.470Z,100.00
2023-01-19T10:59:37.314Z,100.00
2023-01-19T11:02:15.971Z,100.00
2023-01-19T11:04:47.273Z,100.00
2023-01-19T11:07:20.647Z,100.00
2023-01-19T11:09:49.786Z,100.00
2023-01-19T11:12:23.220Z,100.00
2023-01-19T11:14:51.814Z,100.00
2023-01-19T11:17:25.732Z,100.00
2023-01-19T11:20:00.150Z,100.00
2023-01-19T11:22:33.707Z,100.00
2023-01-19T11:25:04.218Z,100.00
2023-01-19T11:27:35.784Z,100.00
2023-01-19T11:30:30.968Z,100.00
2023-01-19T11:32:58.551Z,100.00
2023-01-19T11:35:37.471Z,100.00
2023-01-19T11:38:06.464Z,100.00
2023-01-19T11:40:35.398Z,100.00
2023-01-19T11:43:03.450Z,100.00
2023-01-19T11:45:34.055Z,100.00
2023-01-19T11:48:06.019Z,100.00
2023-01-19T11:50:40.987Z,100.00
2023-01-19T11:53:17.567Z,100.00
2023-01-19T11:56:08.362Z,100.00
2023-01-19T11:58:42.125Z,100.00
2023-01-19T12:01:30.536Z,100.00
2023-01-19T12:04:07.528Z,100.00
2023-01-19T12:06:39.835Z,100.00
2023-01-19T12:09:17.341Z,100.00
2023-01-19T12:11:50.994Z,100.00
2023-01-19T12:14:27.190Z,100.00
2023-01-19T12:16:59.150Z,100.00
2023-01-19T12:19:55.239Z,100.00
2023-01-19T12:22:24.070Z,100.00
2023-01-19T12:25:06.210Z,100.00
2023-01-19T12:27:43.974Z,100.00
2023-01-19T12:30:22.671Z,100.00
2023-01-19T12:32:53.488Z,100.00
2023-01-19T12:35:58.165Z,100.00
2023-01-19T12:38:34.733Z,100.00
2023-01-19T12:41:31.956Z,100.00
2023-01-19T12:44:14.118Z,100.00
2023-01-19T12:46:55.253Z,100.00
2023-01-19T12:49:31.662Z,100.00
2023-01-19T12:52:34.351Z,100.00
2023-01-19T12:55:14.790Z,100.00
2023-01-19T12:58:01.542Z,100.00
2023-01-19T13:00:35.461Z,100.00
2023-01-19T13:03:18.737Z,100.00
2023-01-19T13:05:55.354Z,100.00
2023-01-19T13:08:30.482Z,100.00
2023-01-19T13:11:02.735Z,100.00
2023-01-19T13:13:39.834Z,100.00
2023-01-19T13:16:19.395Z,100.00
2023-01-19T13:18:59.171Z,100.00
2023-01-19T13:21:33.574Z,100.00
2023-01-19T13:24:04.249Z,100.00
2023-01-19T13:26:42.309Z,100.00
2023-01-19T13:29:30.291Z,100.00
2023-01-19T13:32:02.988Z,100.00
2023-01-19T13:34:37.281Z,100.00
2023-01-19T13:37:06.259Z,100.00
2023-01-19T13:39:44.484Z,100.00
2023-01-19T13:42:18.520Z,100.00
2023-01-19T13:44:52.443Z,100.00
2023-01-19T13:47:26.526Z,100.00
2023-01-19T13:49:58.684Z,100.00
2023-01-19T13:52:28.672Z,100.00
2023-01-19T13:55:01.294Z,100.00
2023-01-19T13:57:33.402Z,100.00
2023-01-19T14:00:14.329Z,100.00
2023-01-19T14:03:05.121Z,100.00
2023-01-19T14:05:37.909Z,100.00
2023-01-19T14:08:08.761Z,100.00
2023-01-19T14:10:39.119Z,100.00
2023-01-19T14:13:13.340Z,100.00
2023-01-19T14:15:40.958Z,100.00
2023-01-19T14:18:24.566Z,100.00
2023-01-19T14:21:16.077Z,100.00
2023-01-19T14:23:45.562Z,100.00
2023-01-19T14:26:37.909Z,100.00
2023-01-19T14:29:28.931Z,100.00
2023-01-19T14:32:02.353Z,100.00
2023-01-19T14:34:41.631Z,100.00
2023-01-19T14:37:32.679Z,100.00
2023-01-19T14:40:14.926Z,100.00
2023-01-19T14:42:42.320Z,100.00
2023-01-19T14:45:25.691Z,100.00
2023-01-19T14:47:57.087Z,100.00
2023-01-19T14:50:29.006Z,100.00
2023-01-19T14:53:00.840Z,100.00
2023-01-19T14:55:45.149Z,100.00
2023-01-19T14:58:15.979Z,100.00
2023-01-19T15:00:44.651Z,100.00
2023-01-19T15:03:13.272Z,100.00
2023-01-19T15:05:44.005Z,100.00
2023-01-19T15:08:29.116Z,100.00
2023-01-19T15:10:58.157Z,100.00
2023-01-19T15:13:27.590Z,100.00
2023-01-19T15:15:55.072Z,100.00
2023-01-19T15:18:26.537Z,100.00
2023-01-19T15:21:02.803Z,100.00
2023-01-19T15:23:31.358Z,100.00
2023-01-19T15:26:00.991Z,100.00
2023-01-19T15:28:30.725Z,100.00
2023-01-19T15:30:59.731Z,100.00
2023-01-19T15:33:32.554Z,100.00
2023-01-19T15:36:00.126Z,100.00
2023-01-19T15:38:27.976Z,100.00
2023-01-19T15:40:55.456Z,100.00
2023-01-19T15:43:23.052Z,100.00
2023-01-19T15:46:00.779Z,100.00
2023-01-19T15:48:28.283Z,100.00
2023-01-19T15:50:56.042Z,100.00
2023-01-19T15:53:24.277Z,100.00
2023-01-19T15:55:55.466Z,100.00
2023-01-19T15:58:24.696Z,100.00
2023-01-19T16:00:57.219Z,100.00
2023-01-19T16:03:26.086Z,100.00
2023-01-19T16:05:53.597Z,100.00
2023-01-19T16:08:22.149Z,100.00
2023-01-19T16:10:49.946Z,100.00
2023-01-19T16:13:17.395Z,100.00
2023-01-19T16:15:44.947Z,100.00
2023-01-19T16:18:12.708Z,100.00
2023-01-19T16:20:40.198Z,100.00
2023-01-19T16:23:15.792Z,100.00
2023-01-19T16:25:43.736Z,100.00
2023-01-19T16:28:11.513Z,100.00
2023-01-19T16:30:38.952Z,100.00
2023-01-19T16:33:06.846Z,100.00
2023-01-19T16:35:34.598Z,100.00
2023-01-19T16:38:02.127Z,100.00
2023-01-19T16:40:29.910Z,100.00
2023-01-19T16:42:58.009Z,100.00
2023-01-19T16:45:25.484Z,100.00
2023-01-19T16:47:53.637Z,100.00
2023-01-19T16:50:21.110Z,100.00
2023-01-19T16:52:50.637Z,100.00
2023-01-19T16:55:18.626Z,100.00
2023-01-19T16:57:46.365Z,100.00
2023-01-19T17:00:14.510Z,100.00
2023-01-19T17:02:43.210Z,99.47
2023-01-19T17:05:11.140Z,99.53
2023-01-19T17:07:38.755Z,100.00
2023-01-19T17:10:07.381Z,99.65
2023-01-19T17:12:35.005Z,98.70
2023-01-19T17:15:02.803Z,98.62
2023-01-19T17:17:30.807Z,98.86
2023-01-19T17:20:00.232Z,98.53
2023-01-19T17:22:27.967Z,99.13
2023-01-19T17:24:55.663Z,99.48
2023-01-19T17:27:23.256Z,98.83
2023-01-19T17:29:50.808Z,97.99
2023-01-19T17:32:18.575Z,98.03
2023-01-19T17:34:49.257Z,98.05
2023-01-19T17:37:16.794Z,98.81
2023-01-19T17:39:44.757Z,98.84
2023-01-19T17:42:12.517Z,99.43
2023-01-19T17:44:42.270Z,99.17
2023-01-19T17:47:10.103Z,98.53
2023-01-19T17:49:43.707Z,98.47
2023-01-19T17:52:12.598Z,98.09
2023-01-19T17:54:40.255Z,98.10
2023-01-19T17:57:07.829Z,98.26
2023-01-19T17:59:36.813Z,97.35
2023-01-19T18:02:04.836Z,95.81
2023-01-19T18:04:32.793Z,98.65
2023-01-19T18:07:00.532Z,97.35
2023-01-19T18:09:28.181Z,98.25
2023-01-19T18:11:56.168Z,97.18
2023-01-19T18:14:23.874Z,99.07
2023-01-19T18:16:53.012Z,97.80
2023-01-19T18:19:22.455Z,99.08
2023-01-19T18:21:50.983Z,98.73
2023-01-19T18:24:18.822Z,99.01
2023-01-19T18:26:46.643Z,100.00
2023-01-19T18:29:16.678Z,99.65
2023-01-19T18:31:44.547Z,100.00
2023-01-19T18:34:12.315Z,100.00
2023-01-19T18:36:40.053Z,100.00
2023-01-19T18:39:09.428Z,99.90
2023-01-19T18:41:42.281Z,100.00
2023-01-19T18:44:10.546Z,99.99
2023-01-19T18:46:39.089Z,100.00
2023-01-19T18:49:06.762Z,99.34
2023-01-19T18:51:34.525Z,100.00
2023-01-19T18:54:02.805Z,99.11
2023-01-19T18:56:30.562Z,99.74
2023-01-19T18:58:58.538Z,99.16
2023-01-19T19:01:32.495Z,99.45
2023-01-19T19:04:01.437Z,99.06
2023-01-19T19:06:29.662Z,98.93
2023-01-19T19:08:59.510Z,98.42
2023-01-19T19:11:28.006Z,99.59
2023-01-19T19:13:59.116Z,98.84
2023-01-19T19:16:29.637Z,98.53
2023-01-19T19:18:59.071Z,98.71
2023-01-19T19:21:27.342Z,99.28
2023-01-19T19:23:57.468Z,98.90
2023-01-19T19:26:28.155Z,99.23
2023-01-19T19:28:56.553Z,98.55
2023-01-19T19:31:27.537Z,98.64
2023-01-19T19:33:57.155Z,98.62
2023-01-19T19:36:26.911Z,99.10
2023-01-19T19:38:55.289Z,98.49
2023-01-19T19:41:27.143Z,97.96
2023-01-19T19:43:55.822Z,97.17
2023-01-19T19:46:24.731Z,97.81
2023-01-19T19:48:53.464Z,97.85
2023-01-19T19:51:25.353Z,97.88
2023-01-19T19:53:55.647Z,98.91
2023-01-19T19:56:24.948Z,98.53
2023-01-19T19:58:54.879Z,98.52
2023-01-19T20:01:27.585Z,98.33
2023-01-19T20:03:57.327Z,97.23
2023-01-19T20:06:26.789Z,97.83
2023-01-19T20:08:55.969Z,98.89
2023-01-19T20:11:27.449Z,99.97
2023-01-19T20:13:55.517Z,98.95
2023-01-19T20:16:24.089Z,98.72
2023-01-19T20:18:56.859Z,98.96
2023-01-19T20:21:27.953Z,98.80
2023-01-19T20:23:59.206Z,99.03
2023-01-19T20:26:30.757Z,99.19
2023-01-19T20:29:02.974Z,97.29
2023-01-19T20:31:33.071Z,97.12
2023-01-19T20:34:04.498Z,97.25
2023-01-19T20:36:32.600Z,96.73
2023-01-19T20:39:02.857Z,95.29
2023-01-19T20:41:31.113Z,94.71
2023-01-19T20:43:58.727Z,96.93
2023-01-19T20:46:26.329Z,94.35
2023-01-19T20:48:54.785Z,95.32
2023-01-19T20:51:23.061Z,95.04
2023-01-19T20:53:51.224Z,93.61
2023-01-19T20:56:19.324Z,94.73
2023-01-19T20:58:47.075Z,96.37
2023-01-19T21:01:21.091Z,95.47
2023-01-19T21:03:49.496Z,95.81
2023-01-19T21:06:17.454Z,94.90
2023-01-19T21:08:45.357Z,95.67
2023-01-19T21:11:13.375Z,95.86
2023-01-19T21:13:41.133Z,93.67
2023-01-19T21:16:08.870Z,95.09
2023-01-19T21:18:36.825Z,93.83
2023-01-19T21:21:05.406Z,94.56
2023-01-19T21:23:34.177Z,94.82
2023-01-19T21:26:02.125Z,94.24
2023-01-19T21:28:31.614Z,95.25
2023-01-19T21:31:09.207Z,94.18
2023-01-19T21:33:37.060Z,94.40
2023-01-19T21:36:04.735Z,94.86
2023-01-19T21:38:34.869Z,94.42
2023-01-19T21:41:08.252Z,94.02
2023-01-19T21:43:38.978Z,94.27
2023-01-19T21:46:14.411Z,95.01
2023-01-19T21:48:42.557Z,95.92
2023-01-19T21:51:10.521Z,94.70
2023-01-19T21:53:38.343Z,94.51
2023-01-19T21:56:07.538Z,94.26
2023-01-19T21:58:35.593Z,94.74
2023-01-19T22:01:07.014Z,94.53
2023-01-19T22:03:35.048Z,95.24
2023-01-19T22:06:07.148Z,94.78
2023-01-19T22:08:35.842Z,95.07
2023-01-19T22:11:05.497Z,96.24
2023-01-19T22:13:34.012Z,96.39
2023-01-19T22:16:03.285Z,96.32
2023-01-19T22:18:31.301Z,96.94
2023-01-19T22:21:07.815Z,96.43
2023-01-19T22:23:36.389Z,96.99
2023-01-19T22:26:04.387Z,96.85
2023-01-19T22:28:32.518Z,96.48
2023-01-19T22:31:14.594Z,96.16
2023-01-19T22:33:42.852Z,96.30
2023-01-19T22:36:19.761Z,96.79
2023-01-19T22:39:00.900Z,96.59
2023-01-19T22:41:34.287Z,96.66
2023-01-19T22:44:04.335Z,97.21
2023-01-19T22:46:34.180Z,97.17
2023-01-19T22:49:02.179Z,96.80
2023-01-19T22:51:31.251Z,97.95
2023-01-19T22:53:59.540Z,97.81
2023-01-19T22:56:30.143Z,96.45
2023-01-19T22:58:58.573Z,96.83
2023-01-19T23:01:30.188Z,96.90
2023-01-19T23:03:57.718Z,95.85
2023-01-19T23:06:27.617Z,95.13
2023-01-19T23:08:58.012Z,95.46
2023-01-19T23:11:35.597Z,94.62
2023-01-19T23:14:04.974Z,95.76
2023-01-19T23:16:32.841Z,96.20
2023-01-19T23:19:00.474Z,95.18
2023-01-19T23:21:30.430Z,96.47
2023-01-19T23:24:00.601Z,95.38
2023-01-19T23:26:30.807Z,95.87
2023-01-19T23:29:01.693Z,95.74
2023-01-19T23:31:32.365Z,97.24
2023-01-19T23:34:02.192Z,95.97
2023-01-19T23:36:32.334Z,96.39
2023-01-19T23:39:02.569Z,97.20
2023-01-19T23:41:33.210Z,97.28
2023-01-19T23:44:01.096Z,97.91
2023-01-19T23:46:29.140Z,97.31
2023-01-19T23:48:57.062Z,98.88
2023-01-19T23:51:27.578Z,98.18
2023-01-19T23:53:56.591Z,98.32
2023-01-19T23:56:27.430Z,98.23
2023-01-19T23:59:00.428Z,98.10
